| time (UTC) | temp F | wind direction | speed knots | gust knots | rain 1hr in | rain 24hr in | rain mn in | humidity % | barometer mb |
| 20260903101554 | 70 | 0 | 0.0 | 0.0 | 0.00 | 0.00 | 0.00 | 97 | 1017.7 |
| 20260903100104 | 70 | 0 | 0.0 | 0.0 | 0.00 | 0.00 | 0.00 | 97 | 1017.6 |
| 20260903094603 | 70 | 0 | 0.0 | 0.0 | 0.00 | 0.00 | 0.00 | 96 | 1017.7 |
| 20260903093056 | 70 | 0 | 0.0 | 0.0 | 0.00 | 0.00 | 0.00 | 96 | 1017.6 |
| 20260903091556 | 70 | 0 | 0.0 | 0.0 | 0.00 | 0.00 | 0.00 | 96 | 1017.7 |
| 20260903084600 | 70 | 0 | 0.0 | 0.0 | 0.00 | 0.00 | 0.00 | 96 | 1017.5 |
| 20260903083106 | 71 | 0 | 0.0 | 0.0 | 0.00 | 0.00 | 0.00 | 96 | 1017.3 |
| 20260903081603 | 71 | 0 | 0.0 | 0.0 | 0.00 | 0.00 | 0.00 | 96 | 1017.3 |
| 20260903080105 | 71 | 0 | 0.0 | 0.0 | 0.00 | 0.00 | 0.00 | 96 | 1017.2 |
| 20260903074600 | 71 | 0 | 0.0 | 0.0 | 0.00 | 0.00 | 0.00 | 96 | 1017.2 |
| 20260903073101 | 71 | 0 | 0.0 | 0.0 | 0.00 | 0.00 | 0.00 | 96 | 1017.2 |
| 20260903071605 | 71 | 0 | 0.0 | 0.0 | 0.00 | 0.00 | 0.00 | 96 | 1017.1 |
| 20260903070100 | 71 | 0 | 0.0 | 0.0 | 0.00 | 0.00 | 0.00 | 95 | 1017.1 |
| 20260903064556 | 71 | 0 | 0.0 | 0.0 | 0.00 | 0.00 | 0.00 | 95 | 1017.2 |
| 20260903063055 | 72 | 0 | 0.0 | 0.0 | 0.00 | 0.00 | 0.00 | 95 | 1017.2 |
| 20260903061611 | 72 | 0 | 0.0 | 0.0 | 0.00 | 0.00 | 0.00 | 95 | 1017.1 |
| 20260903060104 | 72 | 0 | 0.0 | 0.0 | 0.00 | 0.00 | 0.00 | 95 | 1017.1 |
| 20260903054603 | 72 | 0 | 0.0 | 0.0 | 0.00 | 0.00 | 0.00 | 95 | 1017.2 |
| 20260903053107 | 73 | 0 | 0.0 | 0.0 | 0.00 | 0.00 | 0.00 | 95 | 1017.1 |
| 20260903051554 | 73 | 0 | 0.0 | 0.0 | 0.00 | 0.00 | 0.00 | 95 | 1017.1 |
| 20260903050055 | 73 | 0 | 0.0 | 0.0 | 0.00 | 0.00 | 0.00 | 94 | 1017.1 |
| 20260903044548 | 73 | 0 | 0.0 | 0.0 | 0.00 | 0.00 | 0.00 | 94 | 1017.1 |
| 20260903043059 | 73 | 0 | 0.0 | 0.0 | 0.00 | 0.00 | 0.00 | 94 | 1017.0 |
| 20260903041558 | 73 | 0 | 0.0 | 0.0 | 0.00 | 0.00 | 0.00 | 93 | 1017.1 |
| 20260903040100 | 74 | 0 | 0.0 | 0.0 | 0.00 | 0.00 | 0.00 | 93 | 1017.1 |
| 20260903034559 | 74 | 0 | 0.0 | 0.0 | 0.00 | 0.00 | 0.00 | 93 | 1017.2 |
| 20260903033055 | 75 | 0 | 0.0 | 0.0 | 0.00 | 0.00 | 0.00 | 93 | 1017.1 |
| 20260903031621 | 75 | 0 | 0.0 | 0.0 | 0.00 | 0.00 | 0.00 | 93 | 1017.2 |
| 20260903030113 | 75 | 0 | 0.0 | 0.0 | 0.00 | 0.00 | 0.00 | 92 | 1017.2 |
| 20260903024555 | 76 | 0 | 0.0 | 0.0 | 0.00 | 0.00 | 0.00 | 90 | 1017.2 |
| 20260903023101 | 76 | 0 | 0.0 | 0.0 | 0.00 | 0.00 | 0.00 | 91 | 1017.2 |
| 20260903021558 | 76 | 0 | 0.0 | 0.0 | 0.00 | 0.00 | 0.00 | 91 | 1017.2 |
| 20260903020100 | 76 | 0 | 0.0 | 0.0 | 0.00 | 0.00 | 0.00 | 91 | 1017.1 |
| 20260903014559 | 77 | 0 | 0.0 | 0.9 | 0.00 | 0.00 | 0.00 | 90 | 1016.9 |
| 20260903013057 | 78 | 219 | 0.0 | 0.9 | 0.00 | 0.00 | 0.00 | 88 | 1016.8 |
| 20260903011606 | 78 | 0 | 0.0 | 0.0 | 0.00 | 0.00 | 0.00 | 88 | 1016.7 |
| 20260903010108 | 79 | 0 | 0.0 | 0.0 | 0.00 | 0.00 | 0.00 | 86 | 1016.5 |
| 20260903004556 | 80 | 0 | 0.0 | 0.0 | 0.00 | 0.00 | 0.00 | 84 | 1016.6 |
| 20260903003058 | 82 | 0 | 0.0 | 0.0 | 0.00 | 0.00 | 0.00 | 81 | 1016.6 |
| 20260903001549 | 84 | 0 | 0.0 | 1.7 | 0.00 | 0.00 | 0.00 | 75 | 1016.7 |
| 20260903000057 | 88 | 0 | 0.0 | 0.9 | 0.00 | 0.00 | 0.00 | 68 | 1016.5 |
| 20260902234556 | 92 | 0 | 0.0 | 0.0 | 0.00 | 0.00 | 0.00 | 65 | 1016.7 |
| 20260902233052 | 92 | 0 | 0.0 | 0.0 | 0.00 | 0.00 | 0.00 | 63 | 1016.9 |
| 20260902231611 | 92 | 0 | 0.0 | 2.6 | 0.00 | 0.00 | 0.00 | 54 | 1017.0 |
| 20260902230056 | 93 | 218 | 0.0 | 2.6 | 0.00 | 0.00 | 0.00 | 53 | 1017.1 |
| 20260902224602 | 93 | 219 | 1.7 | 4.3 | 0.00 | 0.00 | 0.00 | 53 | 1017.2 |
| 20260902223058 | 94 | 205 | 0.9 | 3.5 | 0.00 | 0.00 | 0.00 | 52 | 1017.2 |
| 20260902221627 | 94 | 250 | 0.9 | 2.6 | 0.00 | 0.00 | 0.00 | 49 | 1017.3 |
| 20260902220104 | 95 | 228 | 0.9 | 2.6 | 0.00 | 0.00 | 0.00 | 52 | 1017.3 |
| 20260902214603 | 95 | 207 | 1.7 | 4.3 | 0.00 | 0.00 | 0.00 | 50 | 1017.6 |
| 20260902213103 | 95 | 165 | 1.7 | 5.2 | 0.00 | 0.00 | 0.00 | 51 | 1017.3 |
| 20260902211602 | 95 | 211 | 1.7 | 6.1 | 0.00 | 0.00 | 0.00 | 51 | 1017.2 |
| 20260902210106 | 96 | 0 | 0.9 | 3.5 | 0.00 | 0.00 | 0.00 | 48 | 1017.3 |
| 20260902204605 | 95 | 296 | 0.9 | 5.2 | 0.00 | 0.00 | 0.00 | 52 | 1017.3 |
| 20260902203107 | 95 | 293 | 0.9 | 5.2 | 0.00 | 0.00 | 0.00 | 49 | 1017.4 |
| 20260902201604 | 96 | 265 | 0.9 | 3.5 | 0.00 | 0.00 | 0.00 | 51 | 1017.6 |
| 20260902200108 | 94 | 290 | 0.0 | 4.3 | 0.00 | 0.00 | 0.00 | 53 | 1017.7 |
| 20260902194605 | 93 | 309 | 1.7 | 7.0 | 0.00 | 0.00 | 0.00 | 54 | 1017.8 |
| 20260902193106 | 94 | 315 | 2.6 | 7.0 | 0.00 | 0.00 | 0.00 | 55 | 1017.9 |
| 20260902191619 | 94 | 313 | 0.0 | 3.5 | 0.00 | 0.00 | 0.00 | 56 | 1018.2 |
| 20260902190057 | 94 | 0 | 0.9 | 7.0 | 0.00 | 0.00 | 0.00 | 53 | 1018.2 |
| 20260902184558 | 94 | 159 | 2.6 | 7.8 | 0.00 | 0.00 | 0.00 | 52 | 1018.5 |
| 20260902183123 | 94 | 265 | 2.6 | 7.0 | 0.00 | 0.00 | 0.00 | 50 | 1018.6 |
| 20260902181605 | 92 | 268 | 0.9 | 6.1 | 0.00 | 0.00 | 0.00 | 57 | 1018.8 |
| 20260902180105 | 94 | 267 | 1.7 | 6.1 | 0.00 | 0.00 | 0.00 | 55 | 1018.8 |
| 20260902174600 | 93 | 144 | 3.5 | 6.1 | 0.00 | 0.00 | 0.00 | 54 | 1018.9 |
| 20260902173108 | 93 | 271 | 0.9 | 7.0 | 0.00 | 0.00 | 0.00 | 56 | 1019.2 |
| 20260902171618 | 92 | 208 | 2.6 | 7.0 | 0.00 | 0.00 | 0.00 | 58 | 1019.5 |
| 20260902170058 | 92 | 249 | 0.9 | 5.2 | 0.00 | 0.00 | 0.00 | 58 | 1019.7 |
| 20260902164602 | 92 | 281 | 1.7 | 6.1 | 0.00 | 0.00 | 0.00 | 64 | 1019.9 |
| 20260902163104 | 91 | 304 | 0.9 | 5.2 | 0.00 | 0.00 | 0.00 | 63 | 1020.0 |
| 20260902161601 | 91 | 211 | 0.9 | 5.2 | 0.00 | 0.00 | 0.00 | 60 | 1020.1 |
| 20260902160105 | 90 | 206 | 1.7 | 5.2 | 0.00 | 0.00 | 0.00 | 66 | 1020.4 |
| 20260902154607 | 89 | 313 | 1.7 | 4.3 | 0.00 | 0.00 | 0.00 | 64 | 1020.2 |
| 20260902153100 | 90 | 265 | 0.0 | 3.5 | 0.00 | 0.00 | 0.00 | 67 | 1020.4 |
| 20260902151554 | 88 | 257 | 0.9 | 3.5 | 0.00 | 0.00 | 0.00 | 70 | 1020.3 |
| 20260902150055 | 87 | 220 | 0.9 | 2.6 | 0.00 | 0.00 | 0.00 | 68 | 1020.3 |
| 20260902144558 | 87 | 215 | 0.9 | 3.5 | 0.00 | 0.00 | 0.00 | 72 | 1020.2 |
| 20260902143055 | 85 | 215 | 0.0 | 2.6 | 0.00 | 0.00 | 0.00 | 74 | 1020.1 |
| 20260902141600 | 84 | 215 | 0.9 | 2.6 | 0.00 | 0.00 | 0.00 | 77 | 1020.2 |
| 20260902140105 | 84 | 215 | 0.9 | 3.5 | 0.00 | 0.00 | 0.00 | 79 | 1020.3 |
| 20260902134557 | 82 | 213 | 0.0 | 2.6 | 0.00 | 0.00 | 0.00 | 83 | 1020.1 |
| 20260902133056 | 81 | 242 | 0.9 | 2.6 | 0.00 | 0.00 | 0.00 | 85 | 1020.2 |
| 20260902131600 | 79 | 0 | 0.0 | 1.7 | 0.00 | 0.00 | 0.00 | 87 | 1020.2 |
| 20260902130100 | 78 | 0 | 0.0 | 1.7 | 0.00 | 0.00 | 0.00 | 89 | 1020.2 |
| 20260902124554 | 76 | 0 | 0.0 | 0.9 | 0.00 | 0.00 | 0.00 | 93 | 1020.2 |
| 20260902123058 | 73 | 0 | 0.0 | 0.0 | 0.00 | 0.00 | 0.00 | 97 | 1020.3 |
| 20260902121559 | 71 | 0 | 0.0 | 0.0 | 0.00 | 0.00 | 0.00 | 98 | 1020.1 |
| 20260902120054 | 70 | 0 | 0.0 | 0.0 | 0.00 | 0.00 | 0.00 | 97 | 1019.9 |
| 20260902114554 | 69 | 0 | 0.0 | 0.0 | 0.00 | 0.00 | 0.00 | 97 | 1019.7 |
| 20260902113105 | 69 | 0 | 0.0 | 0.0 | 0.00 | 0.00 | 0.00 | 97 | 1019.4 |
| 20260902111600 | 69 | 0 | 0.0 | 0.0 | 0.00 | 0.00 | 0.00 | 97 | 1019.3 |
| 20260902110052 | 69 | 0 | 0.0 | 0.0 | 0.00 | 0.00 | 0.00 | 97 | 1019.0 |
| 20260902104603 | 69 | 0 | 0.0 | 0.0 | 0.00 | 0.00 | 0.00 | 97 | 1019.0 |
| 20260902103105 | 69 | 0 | 0.0 | 0.0 | 0.00 | 0.00 | 0.00 | 97 | 1018.8 |